sensor_id;sensor_type;location;lat;lon;timestamp;P1;durP1;ratioP1;P2;durP2;ratioP2
44366;SDS011;30086;57.660;12.000;2023-06-26T00:00:51;6.75;;;4.63;;
44366;SDS011;30086;57.660;12.000;2023-06-26T00:03:17;6.88;;;4.63;;
44366;SDS011;30086;57.660;12.000;2023-06-26T00:05:43;7.25;;;4.38;;
44366;SDS011;30086;57.660;12.000;2023-06-26T00:08:09;7.93;;;4.35;;
44366;SDS011;30086;57.660;12.000;2023-06-26T00:10:35;6.45;;;4.20;;
44366;SDS011;30086;57.660;12.000;2023-06-26T00:13:01;7.00;;;4.82;;
44366;SDS011;30086;57.660;12.000;2023-06-26T00:15:30;6.35;;;4.30;;
44366;SDS011;30086;57.660;12.000;2023-06-26T00:17:56;7.43;;;4.82;;
44366;SDS011;30086;57.660;12.000;2023-06-26T00:20:22;8.15;;;5.28;;
44366;SDS011;30086;57.660;12.000;2023-06-26T00:22:50;6.53;;;4.30;;
44366;SDS011;30086;57.660;12.000;2023-06-26T00:25:16;6.90;;;4.82;;
44366;SDS011;30086;57.660;12.000;2023-06-26T00:27:42;6.65;;;4.78;;
44366;SDS011;30086;57.660;12.000;2023-06-26T00:30:08;7.85;;;4.47;;
44366;SDS011;30086;57.660;12.000;2023-06-26T00:32:34;7.45;;;4.65;;
44366;SDS011;30086;57.660;12.000;2023-06-26T00:35:00;6.07;;;4.32;;
44366;SDS011;30086;57.660;12.000;2023-06-26T00:37:26;6.03;;;4.70;;
44366;SDS011;30086;57.660;12.000;2023-06-26T00:39:52;5.95;;;4.75;;
44366;SDS011;30086;57.660;12.000;2023-06-26T00:42:18;5.75;;;4.25;;
44366;SDS011;30086;57.660;12.000;2023-06-26T00:44:44;6.13;;;4.50;;
44366;SDS011;30086;57.660;12.000;2023-06-26T00:47:11;6.38;;;4.55;;
44366;SDS011;30086;57.660;12.000;2023-06-26T00:49:40;7.10;;;5.18;;
44366;SDS011;30086;57.660;12.000;2023-06-26T00:52:06;7.47;;;4.90;;
44366;SDS011;30086;57.660;12.000;2023-06-26T00:54:32;5.47;;;4.57;;
44366;SDS011;30086;57.660;12.000;2023-06-26T00:56:58;9.70;;;4.88;;
44366;SDS011;30086;57.660;12.000;2023-06-26T00:59:24;6.15;;;4.50;;
44366;SDS011;30086;57.660;12.000;2023-06-26T01:01:50;7.32;;;5.03;;
44366;SDS011;30086;57.660;12.000;2023-06-26T01:04:16;7.43;;;4.80;;
44366;SDS011;30086;57.660;12.000;2023-06-26T01:06:46;7.50;;;4.90;;
44366;SDS011;30086;57.660;12.000;2023-06-26T01:09:15;6.70;;;4.90;;
44366;SDS011;30086;57.660;12.000;2023-06-26T01:11:41;7.03;;;4.28;;
44366;SDS011;30086;57.660;12.000;2023-06-26T01:14:07;5.32;;;4.05;;
44366;SDS011;30086;57.660;12.000;2023-06-26T01:16:33;6.28;;;4.20;;
44366;SDS011;30086;57.660;12.000;2023-06-26T01:19:00;5.40;;;4.50;;
44366;SDS011;30086;57.660;12.000;2023-06-26T01:21:26;7.25;;;4.55;;
44366;SDS011;30086;57.660;12.000;2023-06-26T01:26:31;6.93;;;5.25;;
44366;SDS011;30086;57.660;12.000;2023-06-26T01:29:00;8.10;;;4.93;;
44366;SDS011;30086;57.660;12.000;2023-06-26T01:31:28;6.40;;;4.65;;
44366;SDS011;30086;57.660;12.000;2023-06-26T01:33:56;7.78;;;4.85;;
44366;SDS011;30086;57.660;12.000;2023-06-26T01:36:22;8.73;;;4.68;;
44366;SDS011;30086;57.660;12.000;2023-06-26T01:38:49;6.75;;;4.97;;
44366;SDS011;30086;57.660;12.000;2023-06-26T01:41:16;10.32;;;5.20;;
44366;SDS011;30086;57.660;12.000;2023-06-26T01:44:03;5.75;;;4.22;;
44366;SDS011;30086;57.660;12.000;2023-06-26T01:51:41;5.97;;;4.57;;
44366;SDS011;30086;57.660;12.000;2023-06-26T01:54:09;9.45;;;5.15;;
44366;SDS011;30086;57.660;12.000;2023-06-26T01:56:36;6.35;;;5.07;;
44366;SDS011;30086;57.660;12.000;2023-06-26T01:59:04;8.02;;;4.75;;
44366;SDS011;30086;57.660;12.000;2023-06-26T02:01:31;6.47;;;4.82;;
44366;SDS011;30086;57.660;12.000;2023-06-26T02:03:58;6.45;;;4.95;;
44366;SDS011;30086;57.660;12.000;2023-06-26T02:06:24;7.30;;;4.53;;
44366;SDS011;30086;57.660;12.000;2023-06-26T02:08:50;5.97;;;4.93;;
44366;SDS011;30086;57.660;12.000;2023-06-26T02:11:16;5.03;;;4.53;;
44366;SDS011;30086;57.660;12.000;2023-06-26T02:13:42;5.57;;;4.70;;
44366;SDS011;30086;57.660;12.000;2023-06-26T02:16:08;6.55;;;4.80;;
44366;SDS011;30086;57.660;12.000;2023-06-26T02:18:35;8.50;;;5.15;;
44366;SDS011;30086;57.660;12.000;2023-06-26T02:21:17;6.00;;;4.78;;
44366;SDS011;30086;57.660;12.000;2023-06-26T02:23:44;6.25;;;4.88;;
44366;SDS011;30086;57.660;12.000;2023-06-26T02:26:10;6.90;;;5.13;;
44366;SDS011;30086;57.660;12.000;2023-06-26T02:28:36;7.05;;;4.53;;
44366;SDS011;30086;57.660;12.000;2023-06-26T02:31:02;5.88;;;4.72;;
44366;SDS011;30086;57.660;12.000;2023-06-26T02:33:28;7.07;;;4.95;;
44366;SDS011;30086;57.660;12.000;2023-06-26T02:35:54;6.82;;;4.82;;
44366;SDS011;30086;57.660;12.000;2023-06-26T02:38:20;5.57;;;4.30;;
44366;SDS011;30086;57.660;12.000;2023-06-26T02:40:46;7.30;;;5.00;;
44366;SDS011;30086;57.660;12.000;2023-06-26T02:43:12;7.32;;;4.95;;
44366;SDS011;30086;57.660;12.000;2023-06-26T02:45:38;6.13;;;4.55;;
44366;SDS011;30086;57.660;12.000;2023-06-26T02:48:04;7.45;;;4.72;;
44366;SDS011;30086;57.660;12.000;2023-06-26T02:50:30;6.80;;;4.30;;
44366;SDS011;30086;57.660;12.000;2023-06-26T02:52:56;7.22;;;4.90;;
44366;SDS011;30086;57.660;12.000;2023-06-26T02:55:22;6.07;;;4.90;;
44366;SDS011;30086;57.660;12.000;2023-06-26T02:57:48;7.05;;;4.82;;
44366;SDS011;30086;57.660;12.000;2023-06-26T03:00:14;7.43;;;4.95;;
44366;SDS011;30086;57.660;12.000;2023-06-26T03:02:41;6.20;;;4.90;;
44366;SDS011;30086;57.660;12.000;2023-06-26T03:05:07;6.07;;;4.30;;
44366;SDS011;30086;57.660;12.000;2023-06-26T03:07:34;6.00;;;4.70;;
44366;SDS011;30086;57.660;12.000;2023-06-26T03:10:00;6.88;;;4.82;;
44366;SDS011;30086;57.660;12.000;2023-06-26T03:12:26;9.43;;;4.78;;
44366;SDS011;30086;57.660;12.000;2023-06-26T03:14:52;6.15;;;4.40;;
44366;SDS011;30086;57.660;12.000;2023-06-26T03:17:18;4.88;;;4.35;;
44366;SDS011;30086;57.660;12.000;2023-06-26T03:19:44;6.53;;;4.72;;
44366;SDS011;30086;57.660;12.000;2023-06-26T03:22:10;5.75;;;3.95;;
44366;SDS011;30086;57.660;12.000;2023-06-26T03:24:36;8.35;;;4.32;;
44366;SDS011;30086;57.660;12.000;2023-06-26T03:27:02;6.57;;;5.45;;
44366;SDS011;30086;57.660;12.000;2023-06-26T03:29:28;7.43;;;4.85;;
44366;SDS011;30086;57.660;12.000;2023-06-26T03:31:55;7.05;;;4.30;;
44366;SDS011;30086;57.660;12.000;2023-06-26T03:34:21;6.20;;;4.35;;
44366;SDS011;30086;57.660;12.000;2023-06-26T03:36:47;7.10;;;4.63;;
44366;SDS011;30086;57.660;12.000;2023-06-26T03:39:13;6.97;;;4.63;;
44366;SDS011;30086;57.660;12.000;2023-06-26T03:41:39;6.28;;;4.82;;
44366;SDS011;30086;57.660;12.000;2023-06-26T03:44:05;5.95;;;4.25;;
44366;SDS011;30086;57.660;12.000;2023-06-26T03:46:31;5.90;;;4.55;;
44366;SDS011;30086;57.660;12.000;2023-06-26T03:48:57;7.53;;;4.90;;
44366;SDS011;30086;57.660;12.000;2023-06-26T03:51:23;4.47;;;4.05;;
44366;SDS011;30086;57.660;12.000;2023-06-26T03:53:50;9.00;;;4.97;;
44366;SDS011;30086;57.660;12.000;2023-06-26T03:56:16;8.23;;;5.22;;
44366;SDS011;30086;57.660;12.000;2023-06-26T03:58:42;5.57;;;4.60;;
44366;SDS011;30086;57.660;12.000;2023-06-26T04:01:08;6.20;;;4.72;;
44366;SDS011;30086;57.660;12.000;2023-06-26T04:03:34;7.15;;;5.03;;
44366;SDS011;30086;57.660;12.000;2023-06-26T04:06:00;8.80;;;5.20;;
44366;SDS011;30086;57.660;12.000;2023-06-26T04:08:26;5.70;;;4.47;;
44366;SDS011;30086;57.660;12.000;2023-06-26T04:10:52;6.63;;;4.93;;
44366;SDS011;30086;57.660;12.000;2023-06-26T04:13:20;8.68;;;4.43;;
44366;SDS011;30086;57.660;12.000;2023-06-26T04:15:46;4.97;;;4.32;;
44366;SDS011;30086;57.660;12.000;2023-06-26T04:18:12;8.45;;;4.45;;
44366;SDS011;30086;57.660;12.000;2023-06-26T04:20:39;6.30;;;4.75;;
44366;SDS011;30086;57.660;12.000;2023-06-26T04:23:05;5.80;;;4.53;;
44366;SDS011;30086;57.660;12.000;2023-06-26T04:25:31;5.53;;;4.63;;
44366;SDS011;30086;57.660;12.000;2023-06-26T04:27:57;6.90;;;4.43;;
44366;SDS011;30086;57.660;12.000;2023-06-26T04:30:23;6.15;;;4.68;;
44366;SDS011;30086;57.660;12.000;2023-06-26T04:32:49;5.07;;;4.03;;
44366;SDS011;30086;57.660;12.000;2023-06-26T04:35:15;4.88;;;4.30;;
44366;SDS011;30086;57.660;12.000;2023-06-26T04:37:42;5.00;;;4.40;;
44366;SDS011;30086;57.660;12.000;2023-06-26T04:40:09;4.95;;;3.92;;
44366;SDS011;30086;57.660;12.000;2023-06-26T04:42:36;5.28;;;4.13;;
44366;SDS011;30086;57.660;12.000;2023-06-26T04:45:02;7.30;;;4.38;;
44366;SDS011;30086;57.660;12.000;2023-06-26T04:47:31;10.98;;;5.05;;
44366;SDS011;30086;57.660;12.000;2023-06-26T04:49:57;4.88;;;4.00;;
44366;SDS011;30086;57.660;12.000;2023-06-26T04:52:23;4.80;;;4.05;;
44366;SDS011;30086;57.660;12.000;2023-06-26T04:54:49;4.90;;;3.97;;
44366;SDS011;30086;57.660;12.000;2023-06-26T04:57:15;5.88;;;4.07;;
44366;SDS011;30086;57.660;12.000;2023-06-26T04:59:43;7.07;;;4.63;;
44366;SDS011;30086;57.660;12.000;2023-06-26T05:02:10;7.57;;;4.68;;
44366;SDS011;30086;57.660;12.000;2023-06-26T05:04:39;7.00;;;3.95;;
44366;SDS011;30086;57.660;12.000;2023-06-26T05:07:07;4.85;;;3.70;;
44366;SDS011;30086;57.660;12.000;2023-06-26T05:09:33;5.35;;;4.30;;
44366;SDS011;30086;57.660;12.000;2023-06-26T05:11:59;5.35;;;3.60;;
44366;SDS011;30086;57.660;12.000;2023-06-26T05:14:25;10.30;;;4.00;;
44366;SDS011;30086;57.660;12.000;2023-06-26T05:16:52;4.82;;;4.10;;
44366;SDS011;30086;57.660;12.000;2023-06-26T05:19:18;5.68;;;4.40;;
44366;SDS011;30086;57.660;12.000;2023-06-26T05:21:44;5.63;;;4.00;;
44366;SDS011;30086;57.660;12.000;2023-06-26T05:24:10;4.80;;;3.88;;
44366;SDS011;30086;57.660;12.000;2023-06-26T05:26:39;6.07;;;3.92;;
44366;SDS011;30086;57.660;12.000;2023-06-26T05:29:07;5.07;;;3.60;;
44366;SDS011;30086;57.660;12.000;2023-06-26T05:31:34;9.68;;;4.40;;
44366;SDS011;30086;57.660;12.000;2023-06-26T05:34:02;5.22;;;3.60;;
44366;SDS011;30086;57.660;12.000;2023-06-26T05:36:29;5.78;;;4.22;;
44366;SDS011;30086;57.660;12.000;2023-06-26T05:38:58;7.15;;;4.00;;
44366;SDS011;30086;57.660;12.000;2023-06-26T05:41:24;4.25;;;3.67;;
44366;SDS011;30086;57.660;12.000;2023-06-26T05:43:50;4.82;;;3.83;;
44366;SDS011;30086;57.660;12.000;2023-06-26T05:46:19;4.63;;;3.75;;
44366;SDS011;30086;57.660;12.000;2023-06-26T05:48:45;6.18;;;4.03;;
44366;SDS011;30086;57.660;12.000;2023-06-26T05:51:12;6.25;;;3.65;;
44366;SDS011;30086;57.660;12.000;2023-06-26T05:53:38;4.53;;;3.25;;
44366;SDS011;30086;57.660;12.000;2023-06-26T05:56:04;4.93;;;3.22;;
44366;SDS011;30086;57.660;12.000;2023-06-26T05:58:31;4.57;;;3.63;;
44366;SDS011;30086;57.660;12.000;2023-06-26T06:00:57;3.97;;;3.30;;
44366;SDS011;30086;57.660;12.000;2023-06-26T06:03:23;4.28;;;3.20;;
44366;SDS011;30086;57.660;12.000;2023-06-26T06:05:49;3.42;;;2.60;;
44366;SDS011;30086;57.660;12.000;2023-06-26T06:08:15;4.25;;;2.85;;
44366;SDS011;30086;57.660;12.000;2023-06-26T06:10:41;4.70;;;2.95;;
44366;SDS011;30086;57.660;12.000;2023-06-26T06:13:07;3.75;;;2.78;;
44366;SDS011;30086;57.660;12.000;2023-06-26T06:15:35;3.65;;;3.08;;
44366;SDS011;30086;57.660;12.000;2023-06-26T06:18:01;5.90;;;2.60;;
44366;SDS011;30086;57.660;12.000;2023-06-26T06:20:27;5.97;;;3.05;;
44366;SDS011;30086;57.660;12.000;2023-06-26T06:22:53;7.05;;;2.92;;
44366;SDS011;30086;57.660;12.000;2023-06-26T06:25:19;8.32;;;3.03;;
44366;SDS011;30086;57.660;12.000;2023-06-26T06:27:45;7.82;;;2.72;;
44366;SDS011;30086;57.660;12.000;2023-06-26T06:30:11;6.40;;;2.28;;
44366;SDS011;30086;57.660;12.000;2023-06-26T06:32:38;4.07;;;2.55;;
44366;SDS011;30086;57.660;12.000;2023-06-26T06:35:04;5.50;;;2.22;;
44366;SDS011;30086;57.660;12.000;2023-06-26T06:37:35;4.38;;;2.90;;
44366;SDS011;30086;57.660;12.000;2023-06-26T06:40:01;3.30;;;2.38;;
44366;SDS011;30086;57.660;12.000;2023-06-26T06:42:27;3.63;;;2.53;;
44366;SDS011;30086;57.660;12.000;2023-06-26T06:44:53;5.03;;;2.88;;
44366;SDS011;30086;57.660;12.000;2023-06-26T06:47:19;4.10;;;2.20;;
44366;SDS011;30086;57.660;12.000;2023-06-26T06:49:46;4.95;;;2.75;;
44366;SDS011;30086;57.660;12.000;2023-06-26T06:52:12;4.20;;;2.60;;
44366;SDS011;30086;57.660;12.000;2023-06-26T06:54:53;2.60;;;2.40;;
44366;SDS011;30086;57.660;12.000;2023-06-26T06:57:20;5.95;;;2.75;;
44366;SDS011;30086;57.660;12.000;2023-06-26T06:59:46;6.10;;;3.05;;
44366;SDS011;30086;57.660;12.000;2023-06-26T07:02:14;4.78;;;3.08;;
44366;SDS011;30086;57.660;12.000;2023-06-26T07:04:40;5.35;;;3.00;;
44366;SDS011;30086;57.660;12.000;2023-06-26T07:07:06;10.48;;;3.83;;
44366;SDS011;30086;57.660;12.000;2023-06-26T07:09:33;4.53;;;2.85;;
44366;SDS011;30086;57.660;12.000;2023-06-26T07:11:59;4.63;;;2.90;;
44366;SDS011;30086;57.660;12.000;2023-06-26T07:14:25;7.25;;;3.08;;
44366;SDS011;30086;57.660;12.000;2023-06-26T07:16:52;4.10;;;2.97;;
44366;SDS011;30086;57.660;12.000;2023-06-26T07:19:19;6.75;;;3.08;;
44366;SDS011;30086;57.660;12.000;2023-06-26T07:21:45;8.50;;;3.20;;
44366;SDS011;30086;57.660;12.000;2023-06-26T07:24:12;5.53;;;3.00;;
44366;SDS011;30086;57.660;12.000;2023-06-26T07:26:38;5.05;;;3.75;;
44366;SDS011;30086;57.660;12.000;2023-06-26T07:29:04;5.05;;;3.10;;
44366;SDS011;30086;57.660;12.000;2023-06-26T07:31:30;7.18;;;3.50;;
44366;SDS011;30086;57.660;12.000;2023-06-26T07:33:56;5.28;;;3.42;;
44366;SDS011;30086;57.660;12.000;2023-06-26T07:36:22;3.97;;;3.30;;
44366;SDS011;30086;57.660;12.000;2023-06-26T07:38:48;4.22;;;3.28;;
44366;SDS011;30086;57.660;12.000;2023-06-26T07:41:15;7.95;;;4.25;;
44366;SDS011;30086;57.660;12.000;2023-06-26T07:43:41;6.28;;;3.95;;
44366;SDS011;30086;57.660;12.000;2023-06-26T07:46:07;6.35;;;4.20;;
44366;SDS011;30086;57.660;12.000;2023-06-26T07:48:33;8.70;;;4.15;;
44366;SDS011;30086;57.660;12.000;2023-06-26T07:50:59;8.05;;;4.75;;
44366;SDS011;30086;57.660;12.000;2023-06-26T07:53:25;5.72;;;4.35;;
44366;SDS011;30086;57.660;12.000;2023-06-26T07:55:51;11.90;;;4.13;;
44366;SDS011;30086;57.660;12.000;2023-06-26T07:58:17;5.05;;;4.35;;
44366;SDS011;30086;57.660;12.000;2023-06-26T08:00:43;9.18;;;4.97;;
44366;SDS011;30086;57.660;12.000;2023-06-26T08:03:11;6.53;;;4.30;;
44366;SDS011;30086;57.660;12.000;2023-06-26T08:05:37;6.18;;;4.78;;
44366;SDS011;30086;57.660;12.000;2023-06-26T08:08:04;7.40;;;4.32;;
44366;SDS011;30086;57.660;12.000;2023-06-26T08:10:31;5.65;;;4.47;;
44366;SDS011;30086;57.660;12.000;2023-06-26T08:12:57;9.63;;;4.38;;
44366;SDS011;30086;57.660;12.000;2023-06-26T08:15:24;5.57;;;4.30;;
44366;SDS011;30086;57.660;12.000;2023-06-26T08:17:50;8.95;;;3.85;;
44366;SDS011;30086;57.660;12.000;2023-06-26T08:20:16;4.30;;;3.15;;
44366;SDS011;30086;57.660;12.000;2023-06-26T08:22:42;6.53;;;3.42;;
44366;SDS011;30086;57.660;12.000;2023-06-26T08:25:08;3.88;;;3.35;;
44366;SDS011;30086;57.660;12.000;2023-06-26T08:27:35;6.57;;;3.92;;
44366;SDS011;30086;57.660;12.000;2023-06-26T08:30:02;6.93;;;3.20;;
44366;SDS011;30086;57.660;12.000;2023-06-26T08:32:30;8.15;;;3.28;;
44366;SDS011;30086;57.660;12.000;2023-06-26T08:34:56;8.82;;;3.40;;
44366;SDS011;30086;57.660;12.000;2023-06-26T08:37:22;4.10;;;3.53;;
44366;SDS011;30086;57.660;12.000;2023-06-26T08:39:48;4.70;;;3.63;;
44366;SDS011;30086;57.660;12.000;2023-06-26T08:42:14;4.32;;;3.40;;
44366;SDS011;30086;57.660;12.000;2023-06-26T08:44:40;5.63;;;3.25;;
44366;SDS011;30086;57.660;12.000;2023-06-26T08:47:06;3.90;;;3.13;;
44366;SDS011;30086;57.660;12.000;2023-06-26T08:52:19;3.85;;;3.45;;
44366;SDS011;30086;57.660;12.000;2023-06-26T08:54:49;4.10;;;3.25;;
44366;SDS011;30086;57.660;12.000;2023-06-26T08:57:18;3.95;;;3.30;;
44366;SDS011;30086;57.660;12.000;2023-06-26T08:59:44;3.90;;;2.83;;
44366;SDS011;30086;57.660;12.000;2023-06-26T09:02:11;6.25;;;4.10;;
44366;SDS011;30086;57.660;12.000;2023-06-26T09:04:38;8.27;;;4.18;;
44366;SDS011;30086;57.660;12.000;2023-06-26T09:07:05;6.88;;;4.00;;
44366;SDS011;30086;57.660;12.000;2023-06-26T09:09:31;5.18;;;4.05;;
44366;SDS011;30086;57.660;12.000;2023-06-26T09:11:57;5.95;;;3.70;;
44366;SDS011;30086;57.660;12.000;2023-06-26T09:14:23;3.97;;;3.47;;
44366;SDS011;30086;57.660;12.000;2023-06-26T09:16:49;6.13;;;3.80;;
44366;SDS011;30086;57.660;12.000;2023-06-26T09:19:15;6.28;;;3.80;;
44366;SDS011;30086;57.660;12.000;2023-06-26T09:21:41;4.82;;;4.28;;
44366;SDS011;30086;57.660;12.000;2023-06-26T09:24:08;4.78;;;4.07;;
44366;SDS011;30086;57.660;12.000;2023-06-26T09:26:38;7.65;;;3.92;;
44366;SDS011;30086;57.660;12.000;2023-06-26T09:29:04;5.78;;;4.18;;
44366;SDS011;30086;57.660;12.000;2023-06-26T09:31:32;7.10;;;4.45;;
44366;SDS011;30086;57.660;12.000;2023-06-26T09:33:58;5.45;;;4.03;;
44366;SDS011;30086;57.660;12.000;2023-06-26T09:36:26;6.05;;;4.70;;
44366;SDS011;30086;57.660;12.000;2023-06-26T09:38:53;7.93;;;4.55;;
44366;SDS011;30086;57.660;12.000;2023-06-26T09:41:19;5.07;;;4.20;;
44366;SDS011;30086;57.660;12.000;2023-06-26T09:43:46;4.47;;;3.60;;
44366;SDS011;30086;57.660;12.000;2023-06-26T09:46:30;6.15;;;3.97;;
44366;SDS011;30086;57.660;12.000;2023-06-26T09:49:03;6.05;;;3.47;;
44366;SDS011;30086;57.660;12.000;2023-06-26T09:51:30;8.30;;;3.70;;
44366;SDS011;30086;57.660;12.000;2023-06-26T09:53:57;4.55;;;3.78;;
44366;SDS011;30086;57.660;12.000;2023-06-26T09:56:23;5.15;;;3.95;;
44366;SDS011;30086;57.660;12.000;2023-06-26T09:58:49;5.20;;;3.67;;
44366;SDS011;30086;57.660;12.000;2023-06-26T10:01:16;4.40;;;3.60;;
44366;SDS011;30086;57.660;12.000;2023-06-26T10:03:43;7.57;;;3.55;;
44366;SDS011;30086;57.660;12.000;2023-06-26T10:06:09;5.10;;;3.35;;
44366;SDS011;30086;57.660;12.000;2023-06-26T10:08:37;6.22;;;3.28;;
44366;SDS011;30086;57.660;12.000;2023-06-26T10:11:04;3.28;;;2.88;;
44366;SDS011;30086;57.660;12.000;2023-06-26T10:13:39;5.80;;;3.85;;
44366;SDS011;30086;57.660;12.000;2023-06-26T10:16:08;4.25;;;3.05;;
44366;SDS011;30086;57.660;12.000;2023-06-26T10:18:35;5.88;;;2.92;;
44366;SDS011;30086;57.660;12.000;2023-06-26T10:21:02;10.65;;;3.30;;
44366;SDS011;30086;57.660;12.000;2023-06-26T10:23:29;3.20;;;2.90;;
44366;SDS011;30086;57.660;12.000;2023-06-26T10:25:58;4.47;;;2.90;;
44366;SDS011;30086;57.660;12.000;2023-06-26T10:28:24;2.95;;;2.65;;
44366;SDS011;30086;57.660;12.000;2023-06-26T10:30:51;4.15;;;3.05;;
44366;SDS011;30086;57.660;12.000;2023-06-26T10:33:18;3.97;;;3.05;;
44366;SDS011;30086;57.660;12.000;2023-06-26T10:35:45;7.00;;;3.25;;
44366;SDS011;30086;57.660;12.000;2023-06-26T10:38:12;4.13;;;2.78;;
44366;SDS011;30086;57.660;12.000;2023-06-26T10:43:07;4.72;;;3.60;;
44366;SDS011;30086;57.660;12.000;2023-06-26T10:45:34;4.90;;;3.10;;
44366;SDS011;30086;57.660;12.000;2023-06-26T10:48:01;3.20;;;2.72;;
44366;SDS011;30086;57.660;12.000;2023-06-26T10:50:29;7.78;;;3.00;;
44366;SDS011;30086;57.660;12.000;2023-06-26T10:55:48;3.53;;;3.00;;
44366;SDS011;30086;57.660;12.000;2023-06-26T11:01:13;4.55;;;3.10;;
44366;SDS011;30086;57.660;12.000;2023-06-26T11:03:50;3.33;;;3.03;;
44366;SDS011;30086;57.660;12.000;2023-06-26T11:06:28;4.88;;;3.33;;
44366;SDS011;30086;57.660;12.000;2023-06-26T11:08:59;5.50;;;3.53;;
44366;SDS011;30086;57.660;12.000;2023-06-26T11:14:10;5.32;;;3.38;;
44366;SDS011;30086;57.660;12.000;2023-06-26T11:16:36;3.13;;;2.83;;
44366;SDS011;30086;57.660;12.000;2023-06-26T11:19:02;3.95;;;3.40;;
44366;SDS011;30086;57.660;12.000;2023-06-26T11:21:29;5.82;;;3.15;;
44366;SDS011;30086;57.660;12.000;2023-06-26T11:23:55;4.25;;;3.05;;
44366;SDS011;30086;57.660;12.000;2023-06-26T11:26:25;5.28;;;3.10;;
44366;SDS011;30086;57.660;12.000;2023-06-26T11:28:53;15.85;;;3.33;;
44366;SDS011;30086;57.660;12.000;2023-06-26T11:31:38;4.70;;;3.65;;
44366;SDS011;30086;57.660;12.000;2023-06-26T11:34:06;3.55;;;3.25;;
44366;SDS011;30086;57.660;12.000;2023-06-26T11:36:38;5.70;;;3.50;;
44366;SDS011;30086;57.660;12.000;2023-06-26T11:39:06;6.03;;;3.15;;
44366;SDS011;30086;57.660;12.000;2023-06-26T11:41:33;3.45;;;3.13;;
44366;SDS011;30086;57.660;12.000;2023-06-26T11:44:03;5.65;;;3.53;;
44366;SDS011;30086;57.660;12.000;2023-06-26T11:46:29;4.05;;;3.58;;
44366;SDS011;30086;57.660;12.000;2023-06-26T11:48:55;6.10;;;3.40;;
44366;SDS011;30086;57.660;12.000;2023-06-26T11:51:22;4.50;;;3.60;;
44366;SDS011;30086;57.660;12.000;2023-06-26T11:53:48;6.75;;;3.35;;
44366;SDS011;30086;57.660;12.000;2023-06-26T11:56:15;8.63;;;3.58;;
44366;SDS011;30086;57.660;12.000;2023-06-26T12:01:23;4.93;;;4.00;;
44366;SDS011;30086;57.660;12.000;2023-06-26T12:03:50;4.97;;;2.95;;
44366;SDS011;30086;57.660;12.000;2023-06-26T12:06:17;4.78;;;3.53;;
44366;SDS011;30086;57.660;12.000;2023-06-26T12:08:43;4.70;;;3.63;;
44366;SDS011;30086;57.660;12.000;2023-06-26T12:11:09;5.85;;;3.42;;
44366;SDS011;30086;57.660;12.000;2023-06-26T12:13:36;5.53;;;3.28;;
44366;SDS011;30086;57.660;12.000;2023-06-26T12:16:02;3.42;;;3.13;;
44366;SDS011;30086;57.660;12.000;2023-06-26T12:18:34;4.40;;;2.90;;
44366;SDS011;30086;57.660;12.000;2023-06-26T12:21:01;3.92;;;3.38;;
44366;SDS011;30086;57.660;12.000;2023-06-26T12:23:33;3.30;;;3.00;;
44366;SDS011;30086;57.660;12.000;2023-06-26T12:26:20;7.50;;;4.43;;
44366;SDS011;30086;57.660;12.000;2023-06-26T12:28:46;6.53;;;4.60;;
44366;SDS011;30086;57.660;12.000;2023-06-26T12:31:15;6.45;;;4.07;;
44366;SDS011;30086;57.660;12.000;2023-06-26T12:33:42;7.75;;;4.43;;
44366;SDS011;30086;57.660;12.000;2023-06-26T12:36:12;8.40;;;4.63;;
44366;SDS011;30086;57.660;12.000;2023-06-26T12:38:39;4.68;;;3.95;;
44366;SDS011;30086;57.660;12.000;2023-06-26T12:41:05;5.97;;;4.57;;
44366;SDS011;30086;57.660;12.000;2023-06-26T12:43:31;6.03;;;3.92;;
44366;SDS011;30086;57.660;12.000;2023-06-26T12:45:57;4.68;;;4.18;;
44366;SDS011;30086;57.660;12.000;2023-06-26T12:48:36;3.97;;;3.58;;
44366;SDS011;30086;57.660;12.000;2023-06-26T12:51:12;6.40;;;4.43;;
44366;SDS011;30086;57.660;12.000;2023-06-26T12:53:38;5.18;;;3.85;;
44366;SDS011;30086;57.660;12.000;2023-06-26T12:56:07;5.32;;;4.32;;
44366;SDS011;30086;57.660;12.000;2023-06-26T12:58:34;6.32;;;4.50;;
44366;SDS011;30086;57.660;12.000;2023-06-26T13:01:04;7.85;;;4.85;;
44366;SDS011;30086;57.660;12.000;2023-06-26T13:03:35;5.88;;;4.78;;
44366;SDS011;30086;57.660;12.000;2023-06-26T13:06:02;6.25;;;4.55;;
44366;SDS011;30086;57.660;12.000;2023-06-26T13:08:28;7.35;;;4.35;;
44366;SDS011;30086;57.660;12.000;2023-06-26T13:10:54;6.03;;;4.50;;
44366;SDS011;30086;57.660;12.000;2023-06-26T13:13:20;5.78;;;4.53;;
44366;SDS011;30086;57.660;12.000;2023-06-26T13:15:47;4.72;;;3.85;;
44366;SDS011;30086;57.660;12.000;2023-06-26T13:18:13;5.60;;;4.13;;
44366;SDS011;30086;57.660;12.000;2023-06-26T13:20:40;5.97;;;4.07;;
44366;SDS011;30086;57.660;12.000;2023-06-26T13:23:06;6.85;;;4.10;;
44366;SDS011;30086;57.660;12.000;2023-06-26T13:25:32;7.03;;;4.05;;
44366;SDS011;30086;57.660;12.000;2023-06-26T13:27:58;5.43;;;4.07;;
44366;SDS011;30086;57.660;12.000;2023-06-26T13:30:24;4.32;;;3.92;;
44366;SDS011;30086;57.660;12.000;2023-06-26T13:32:50;5.55;;;4.57;;
44366;SDS011;30086;57.660;12.000;2023-06-26T13:35:16;4.80;;;3.90;;
44366;SDS011;30086;57.660;12.000;2023-06-26T13:37:43;5.97;;;4.45;;
44366;SDS011;30086;57.660;12.000;2023-06-26T13:40:09;5.28;;;4.00;;
44366;SDS011;30086;57.660;12.000;2023-06-26T13:42:36;5.35;;;4.05;;
44366;SDS011;30086;57.660;12.000;2023-06-26T13:45:03;5.88;;;4.00;;
44366;SDS011;30086;57.660;12.000;2023-06-26T13:47:29;5.63;;;4.05;;
44366;SDS011;30086;57.660;12.000;2023-06-26T13:49:55;7.10;;;3.80;;
44366;SDS011;30086;57.660;12.000;2023-06-26T13:52:21;22.95;;;4.95;;
44366;SDS011;30086;57.660;12.000;2023-06-26T13:54:47;6.50;;;3.08;;
44366;SDS011;30086;57.660;12.000;2023-06-26T13:57:14;24.50;;;4.53;;
44366;SDS011;30086;57.660;12.000;2023-06-26T13:59:40;13.20;;;4.05;;
44366;SDS011;30086;57.660;12.000;2023-06-26T14:02:07;10.20;;;3.53;;
44366;SDS011;30086;57.660;12.000;2023-06-26T14:04:33;11.23;;;4.05;;
44366;SDS011;30086;57.660;12.000;2023-06-26T14:06:59;10.35;;;2.47;;
44366;SDS011;30086;57.660;12.000;2023-06-26T14:09:25;7.20;;;3.55;;
44366;SDS011;30086;57.660;12.000;2023-06-26T14:11:54;7.63;;;3.47;;
44366;SDS011;30086;57.660;12.000;2023-06-26T14:14:20;5.80;;;2.47;;
44366;SDS011;30086;57.660;12.000;2023-06-26T14:16:46;11.50;;;3.78;;
44366;SDS011;30086;57.660;12.000;2023-06-26T14:19:14;7.85;;;4.13;;
44366;SDS011;30086;57.660;12.000;2023-06-26T14:21:42;9.80;;;3.55;;
44366;SDS011;30086;57.660;12.000;2023-06-26T14:24:08;9.40;;;4.55;;
44366;SDS011;30086;57.660;12.000;2023-06-26T14:26:34;21.45;;;3.78;;
44366;SDS011;30086;57.660;12.000;2023-06-26T14:29:01;15.38;;;5.60;;
44366;SDS011;30086;57.660;12.000;2023-06-26T14:31:28;15.35;;;4.75;;
44366;SDS011;30086;57.660;12.000;2023-06-26T14:33:54;11.82;;;2.50;;
44366;SDS011;30086;57.660;12.000;2023-06-26T14:36:20;23.52;;;6.88;;
44366;SDS011;30086;57.660;12.000;2023-06-26T14:38:46;12.52;;;4.00;;
44366;SDS011;30086;57.660;12.000;2023-06-26T14:41:12;17.30;;;6.13;;
44366;SDS011;30086;57.660;12.000;2023-06-26T14:43:38;12.00;;;3.42;;
44366;SDS011;30086;57.660;12.000;2023-06-26T14:46:05;14.38;;;5.50;;
44366;SDS011;30086;57.660;12.000;2023-06-26T14:48:31;11.30;;;5.15;;
44366;SDS011;30086;57.660;12.000;2023-06-26T14:50:57;19.05;;;6.32;;
44366;SDS011;30086;57.660;12.000;2023-06-26T14:53:25;15.68;;;4.82;;
44366;SDS011;30086;57.660;12.000;2023-06-26T14:55:51;14.57;;;4.95;;